Time;durP1;ratioP1;P1;durP2;ratioP2;P2;SDS_P1;SDS_P2;PMS_P1;PMS_P2;Temp;Humidity;BMP_temperature;BMP_pressure;BME280_temperature;BME280_humidity;BME280_pressure;Samples;Min_cycle;Max_cycle;Signal;HPM_P1;HPM_P2
2024/03/28 00:02:17;;;;;;;17.92;14.43;;;9.90;99.90;;;;;;4846985;29;20235;-92
2024/03/28 00:04:42;;;;;;;21.33;14.95;;;9.90;99.90;;;;;;4872123;29;20188;-94
2024/03/28 00:07:08;;;;;;;17.75;15.02;;;9.80;99.90;;;;;;4862293;29;20529;-95
2024/03/28 00:09:34;;;;;;;18.52;13.88;;;9.80;99.90;;;;;;4862183;29;20531;-92
2024/03/28 00:12:01;;;;;;;18.77;14.77;;;9.70;99.90;;;;;;4846699;29;20271;-94
2024/03/28 00:14:27;;;;;;;19.10;14.02;;;9.70;99.90;;;;;;4846433;29;20617;-95
2024/03/28 00:16:53;;;;;;;20.00;14.43;;;9.70;99.90;;;;;;4846965;29;20260;-96
2024/03/28 00:19:19;;;;;;;21.45;15.10;;;9.60;99.90;;;;;;4863244;29;20225;-94
2024/03/28 00:22:04;;;;;;;21.63;14.88;;;9.60;99.90;;;;;;4846740;29;20208;-93
2024/03/28 00:24:30;;;;;;;16.95;13.85;;;9.60;99.90;;;;;;4846659;29;20185;-95
2024/03/28 00:26:56;;;;;;;19.65;15.23;;;9.50;99.90;;;;;;4846636;29;20181;-95
2024/03/28 00:29:21;;;;;;;19.30;15.60;;;9.50;99.90;;;;;;4846892;29;20248;-95
2024/03/28 00:31:48;;;;;;;17.67;14.45;;;9.50;99.90;;;;;;4846879;29;20559;-95
2024/03/28 00:34:13;;;;;;;19.33;15.30;;;9.50;99.90;;;;;;4846779;29;20251;-94
2024/03/28 00:36:39;;;;;;;19.58;15.32;;;9.50;99.90;;;;;;4846586;29;20620;-94
2024/03/28 00:39:05;;;;;;;18.70;15.05;;;9.50;99.90;;;;;;4846656;29;20180;-95
2024/03/28 00:41:30;;;;;;;19.88;15.80;;;9.50;99.90;;;;;;4831313;29;20607;-95
2024/03/28 00:43:56;;;;;;;22.27;15.70;;;9.50;99.90;;;;;;4828219;29;20185;-94
2024/03/28 00:46:22;;;;;;;21.73;15.95;;;9.50;99.90;;;;;;4828472;29;20193;-96
2024/03/28 00:48:48;;;;;;;22.75;15.55;;;9.40;99.90;;;;;;4828413;29;20181;-95
2024/03/28 00:51:13;;;;;;;19.02;15.43;;;9.30;99.90;;;;;;4828198;29;20208;-93
2024/03/28 00:53:50;;;;;;;21.08;15.43;;;9.30;99.90;;;;;;4828258;29;20185;-92
2024/03/28 00:56:16;;;;;;;23.58;16.50;;;9.30;99.90;;;;;;4828335;29;20185;-93
2024/03/28 00:58:41;;;;;;;22.23;15.23;;;9.30;99.90;;;;;;4828009;29;20233;-94
2024/03/28 01:01:08;;;;;;;22.05;16.00;;;9.30;99.90;;;;;;4828218;29;20189;-95
2024/03/28 01:03:34;;;;;;;22.42;17.05;;;9.30;99.90;;;;;;4828098;29;20185;-95
2024/03/28 01:06:00;;;;;;;31.50;17.05;;;9.30;99.90;;;;;;4830657;29;20184;-94
2024/03/28 01:08:27;;;;;;;20.63;15.07;;;9.30;99.90;;;;;;4831699;29;20181;-93
2024/03/28 01:10:52;;;;;;;20.85;16.42;;;9.30;99.90;;;;;;4831351;29;20181;-94
2024/03/28 01:13:27;;;;;;;21.08;15.60;;;9.30;99.90;;;;;;4831569;29;20181;-96
2024/03/28 01:15:58;;;;;;;22.35;16.50;;;9.30;99.90;;;;;;4831877;29;20208;-96
2024/03/28 01:18:23;;;;;;;23.55;16.77;;;9.20;99.90;;;;;;4847915;29;20254;-95
2024/03/28 01:23:27;;;;;;;21.33;16.23;;;9.20;99.90;;;;;;5025602;24;20282;-94
2024/03/28 01:25:53;;;;;;;29.07;17.63;;;9.20;99.90;;;;;;4881122;29;20192;-94
2024/03/28 01:28:19;;;;;;;22.60;16.60;;;9.20;99.90;;;;;;4864968;29;20189;-93
2024/03/28 01:30:44;;;;;;;22.55;16.48;;;9.10;99.90;;;;;;4865637;29;20213;-94
2024/03/28 01:33:11;;;;;;;24.98;17.25;;;9.20;99.90;;;;;;4864966;29;20185;-94
2024/03/28 01:35:37;;;;;;;20.88;16.95;;;9.20;99.90;;;;;;4864955;29;20184;-94
2024/03/28 01:38:03;;;;;;;23.52;17.65;;;9.20;99.90;;;;;;4864649;29;20191;-92
2024/03/28 01:40:28;;;;;;;22.48;17.42;;;9.20;99.90;;;;;;4864777;29;20202;-94
2024/03/28 01:43:05;;;;;;;24.58;17.88;;;9.20;99.90;;;;;;4864904;29;20279;-95
2024/03/28 01:45:31;;;;;;;22.75;18.10;;;9.20;99.90;;;;;;4864856;29;20168;-95
2024/03/28 01:47:56;;;;;;;23.52;16.88;;;9.20;99.90;;;;;;4864650;29;20317;-94
2024/03/28 01:50:23;;;;;;;23.33;17.43;;;9.20;99.90;;;;;;4864561;29;20209;-93
2024/03/28 01:52:49;;;;;;;27.30;18.70;;;9.10;99.90;;;;;;4867549;29;20191;-93
2024/03/28 01:55:17;;;;;;;26.20;17.27;;;9.20;99.90;;;;;;4883956;29;20188;-94
2024/03/28 01:57:44;;;;;;;26.02;18.55;;;9.20;99.90;;;;;;4867456;29;20616;-92
2024/03/28 02:00:11;;;;;;;24.63;17.70;;;9.20;99.90;;;;;;4867941;29;20211;-92
2024/03/28 02:02:40;;;;;;;25.50;17.88;;;9.20;99.90;;;;;;4868167;29;20223;-91
2024/03/28 02:05:14;;;;;;;25.90;17.77;;;9.20;99.90;;;;;;4868162;29;20184;-92
2024/03/28 02:07:40;;;;;;;23.40;18.17;;;9.20;99.90;;;;;;4884272;29;20200;-92
2024/03/28 02:10:06;;;;;;;29.07;17.43;;;9.10;99.90;;;;;;4883145;29;20180;-94
2024/03/28 02:12:33;;;;;;;24.47;18.60;;;9.20;99.90;;;;;;4867948;29;20192;-94
2024/03/28 02:15:01;;;;;;;26.70;19.80;;;9.10;99.90;;;;;;4868148;29;20525;-90
2024/03/28 02:17:27;;;;;;;25.93;18.60;;;9.10;99.90;;;;;;4868254;29;20183;-94
2024/03/28 02:19:52;;;;;;;24.10;17.93;;;9.10;99.90;;;;;;4867545;29;20216;-91
2024/03/28 02:22:18;;;;;;;23.17;18.47;;;9.10;99.90;;;;;;4867030;29;20250;-90
2024/03/28 02:24:51;;;;;;;25.43;20.37;;;9.20;99.90;;;;;;4867226;29;20184;-91
2024/03/28 02:27:16;;;;;;;25.27;19.30;;;9.10;99.90;;;;;;4867153;29;20624;-90
2024/03/28 02:29:42;;;;;;;31.08;19.42;;;9.20;99.90;;;;;;4883761;29;20187;-90
2024/03/28 02:32:08;;;;;;;28.20;19.53;;;9.20;99.90;;;;;;4883544;29;20191;-89
2024/03/28 02:34:47;;;;;;;29.67;20.50;;;9.20;99.90;;;;;;4866954;29;20184;-92
2024/03/28 02:37:12;;;;;;;27.77;20.73;;;9.20;99.90;;;;;;4867869;29;20300;-96
2024/03/28 02:39:38;;;;;;;28.98;20.42;;;9.20;99.90;;;;;;4887655;29;20212;-96
2024/03/28 02:42:04;;;;;;;28.88;20.75;;;9.20;99.90;;;;;;4871990;29;20235;-92
2024/03/28 02:44:30;;;;;;;30.23;21.97;;;9.10;99.90;;;;;;4892484;29;20180;-95
2024/03/28 02:46:56;;;;;;;28.23;21.37;;;9.10;99.90;;;;;;4873743;29;20275;-96
2024/03/28 02:49:21;;;;;;;29.37;21.17;;;9.10;99.90;;;;;;4873735;29;20187;-92
2024/03/28 02:51:47;;;;;;;28.42;18.73;;;9.10;99.90;;;;;;4886526;29;20180;-89
2024/03/28 02:54:29;;;;;;;25.83;17.73;;;9.00;99.90;;;;;;4868846;29;20181;-92
2024/03/28 02:57:00;;;;;;;29.33;17.57;;;9.00;99.90;;;;;;4863909;29;20609;-91
2024/03/28 02:59:26;;;;;;;25.30;16.03;;;8.90;99.90;;;;;;4864717;29;20655;-90
2024/03/28 03:01:51;;;;;;;19.10;11.90;;;8.80;99.90;;;;;;4863279;29;20216;-85
2024/03/28 03:04:19;;;;;;;17.17;10.73;;;8.70;99.90;;;;;;4878941;29;20218;-87
2024/03/28 03:06:45;;;;;;;17.90;10.43;;;8.60;99.90;;;;;;4864540;29;20277;-86
2024/03/28 03:09:11;;;;;;;16.43;9.77;;;8.50;99.90;;;;;;4863354;29;20232;-84
2024/03/28 03:11:36;;;;;;;12.57;7.90;;;8.40;99.90;;;;;;4863134;29;20688;-90
2024/03/28 03:14:03;;;;;;;12.87;7.63;;;8.30;99.90;;;;;;4864404;29;20183;-90
2024/03/28 03:16:29;;;;;;;10.03;5.83;;;8.30;99.90;;;;;;4863164;29;20245;-86
2024/03/28 03:18:54;;;;;;;11.60;6.13;;;8.20;99.90;;;;;;4863137;29;20193;-86
2024/03/28 03:21:21;;;;;;;10.70;5.63;;;8.20;99.90;;;;;;4863966;29;20196;-87
2024/03/28 03:23:50;;;;;;;9.57;5.10;;;8.10;99.90;;;;;;4862032;29;20232;-87
2024/03/28 03:26:24;;;;;;;8.97;4.77;;;8.10;99.90;;;;;;4862516;29;20211;-85
2024/03/28 03:34:39;;;;;;;5.37;3.57;;;8.00;99.90;;;;;;4864184;29;20207;-91
2024/03/28 03:37:13;;;;;;;6.00;3.40;;;7.90;99.90;;;;;;4847481;29;20184;-89
2024/03/28 03:39:39;;;;;;;5.77;3.70;;;7.90;99.90;;;;;;4847298;29;20258;-91
2024/03/28 03:42:04;;;;;;;5.17;2.70;;;7.80;99.90;;;;;;4847626;29;20216;-91
2024/03/28 03:44:32;;;;;;;6.30;3.30;;;7.80;99.90;;;;;;4847739;29;20612;-93
2024/03/28 03:46:58;;;;;;;5.43;3.03;;;7.80;99.90;;;;;;4847382;29;20184;-92
2024/03/28 03:49:24;;;;;;;7.10;2.80;;;7.70;99.90;;;;;;4847321;29;20188;-91
2024/03/28 03:51:49;;;;;;;4.67;2.63;;;7.70;99.90;;;;;;4863628;29;20180;-89
2024/03/28 03:54:16;;;;;;;4.13;2.73;;;7.70;99.90;;;;;;4847282;29;20184;-88
2024/03/28 03:56:42;;;;;;;4.30;2.90;;;7.70;99.90;;;;;;4847291;29;20187;-91
2024/03/28 03:59:07;;;;;;;5.87;3.07;;;7.60;99.90;;;;;;4847559;29;20272;-87
2024/03/28 04:01:33;;;;;;;5.87;3.30;;;7.60;99.90;;;;;;4863683;29;20291;-89
2024/03/28 04:03:58;;;;;;;6.23;3.33;;;7.60;99.90;;;;;;4847466;29;20184;-90
2024/03/28 04:06:24;;;;;;;4.83;3.70;;;7.60;99.90;;;;;;4847333;29;20290;-89
2024/03/28 04:08:50;;;;;;;4.77;3.30;;;7.60;99.90;;;;;;4846954;29;20183;-89
2024/03/28 04:11:16;;;;;;;4.57;3.30;;;7.60;99.90;;;;;;4846943;29;20664;-89
2024/03/28 04:13:41;;;;;;;3.77;3.10;;;7.50;99.90;;;;;;4863525;29;20177;-90
2024/03/28 04:16:15;;;;;;;4.27;2.97;;;7.50;99.90;;;;;;4863605;29;20184;-90
2024/03/28 04:18:41;;;;;;;3.37;2.50;;;7.40;99.90;;;;;;4846803;29;20617;-92
2024/03/28 04:21:06;;;;;;;5.40;3.07;;;7.40;99.90;;;;;;4846762;29;20243;-90
2024/03/28 04:23:32;;;;;;;3.80;2.80;;;7.40;99.90;;;;;;4843110;29;20236;-90
2024/03/28 04:26:16;;;;;;;4.40;3.30;;;7.40;99.90;;;;;;4843521;29;20181;-88
2024/03/28 04:28:41;;;;;;;7.00;3.30;;;7.40;99.90;;;;;;4843474;29;20224;-86
2024/03/28 04:31:07;;;;;;;3.90;3.10;;;7.30;99.90;;;;;;4843539;29;20181;-88
2024/03/28 04:33:33;;;;;;;5.13;3.10;;;7.30;99.90;;;;;;4843596;29;20971;-89
2024/03/28 04:36:06;;;;;;;4.13;3.13;;;7.30;99.90;;;;;;4844548;29;20181;-90
2024/03/28 04:38:32;;;;;;;4.60;2.57;;;7.20;99.90;;;;;;4843312;29;20213;-89
2024/03/28 04:40:57;;;;;;;4.07;2.40;;;7.20;99.90;;;;;;4844691;29;20242;-90
2024/03/28 04:43:23;;;;;;;5.63;2.57;;;7.10;99.90;;;;;;4843700;29;20649;-89
2024/03/28 04:45:51;;;;;;;3.33;2.60;;;7.10;99.90;;;;;;4843527;29;20177;-89
2024/03/28 04:48:17;;;;;;;2.90;2.30;;;7.00;99.90;;;;;;4844722;29;20209;-88
2024/03/28 04:50:43;;;;;;;2.90;2.10;;;7.00;99.90;;;;;;4843397;29;20272;-89
2024/03/28 04:53:08;;;;;;;3.87;2.23;;;7.00;99.90;;;;;;4843302;29;20326;-90
2024/03/28 04:55:53;;;;;;;2.70;2.27;;;6.90;99.90;;;;;;4843435;29;20196;-88
2024/03/28 04:58:19;;;;;;;3.57;2.70;;;6.90;99.90;;;;;;4844456;29;20261;-89
2024/03/28 05:00:45;;;;;;;3.50;2.40;;;6.90;99.90;;;;;;4846257;29;20206;-92
2024/03/28 05:03:10;;;;;;;3.43;2.43;;;6.90;99.90;;;;;;4846338;29;20219;-91
2024/03/28 05:05:37;;;;;;;3.43;2.23;;;6.80;99.90;;;;;;4846369;29;20192;-89
2024/03/28 05:08:03;;;;;;;4.83;2.73;;;6.90;99.90;;;;;;4846082;29;20197;-90
2024/03/28 05:10:29;;;;;;;3.60;2.53;;;6.90;99.90;;;;;;4862685;29;20206;-91
2024/03/28 05:12:56;;;;;;;6.17;2.83;;;6.90;99.90;;;;;;4846300;29;20192;-91
2024/03/28 05:15:26;;;;;;;3.20;2.60;;;6.80;99.90;;;;;;4846286;29;20601;-88
2024/03/28 05:17:53;;;;;;;3.53;2.50;;;6.80;99.90;;;;;;4846280;29;20192;-88
2024/03/28 05:20:19;;;;;;;3.63;2.60;;;6.80;99.90;;;;;;4846377;29;20195;-88
2024/03/28 05:22:44;;;;;;;3.60;2.63;;;6.80;99.90;;;;;;4842820;29;20241;-90
2024/03/28 05:25:14;;;;;;;3.93;2.80;;;6.80;99.90;;;;;;4845955;29;20700;-90
2024/03/28 05:27:40;;;;;;;3.20;2.80;;;6.80;99.90;;;;;;4846312;29;20188;-87
2024/03/28 05:30:07;;;;;;;3.47;2.60;;;6.80;99.90;;;;;;4862756;29;20192;-91
2024/03/28 05:32:32;;;;;;;3.80;2.90;;;6.80;99.90;;;;;;4849844;29;20189;-91
2024/03/28 05:34:58;;;;;;;5.07;3.30;;;6.80;99.90;;;;;;4843272;29;20189;-91
2024/03/28 05:37:25;;;;;;;4.13;2.77;;;6.80;99.90;;;;;;4842662;29;20193;-88
2024/03/28 05:39:51;;;;;;;3.70;2.47;;;6.80;99.90;;;;;;4843912;29;20182;-91
2024/03/28 05:42:17;;;;;;;3.73;2.53;;;6.70;99.90;;;;;;4826414;29;20228;-87
2024/03/28 05:44:42;;;;;;;3.07;2.57;;;6.70;99.90;;;;;;4830112;29;20212;-89
2024/03/28 05:47:10;;;;;;;5.03;2.23;;;6.60;99.90;;;;;;4843972;29;20182;-87
2024/03/28 05:49:36;;;;;;;3.43;2.40;;;6.70;99.90;;;;;;4842898;29;20204;-89
2024/03/28 05:52:01;;;;;;;5.10;2.60;;;6.60;99.90;;;;;;4845449;29;20708;-89
2024/03/28 05:54:27;;;;;;;3.57;2.50;;;6.60;99.90;;;;;;4846055;29;20212;-90
2024/03/28 05:57:01;;;;;;;3.77;2.50;;;6.70;99.90;;;;;;4838091;29;20185;-93
2024/03/28 05:59:26;;;;;;;3.53;2.40;;;6.70;99.90;;;;;;4835198;29;20200;-91
2024/03/28 06:01:53;;;;;;;3.37;2.70;;;6.70;99.90;;;;;;4827647;29;20281;-91
2024/03/28 06:04:19;;;;;;;3.63;2.50;;;6.70;99.90;;;;;;4812164;29;20218;-91
2024/03/28 06:06:53;;;;;;;3.60;2.23;;;6.70;99.90;;;;;;4827453;29;20225;-92
2024/03/28 06:09:18;;;;;;;4.37;2.67;;;6.70;99.90;;;;;;4828370;29;20208;-91
2024/03/28 06:11:44;;;;;;;2.50;2.20;;;6.80;99.90;;;;;;4828564;29;20630;-90
2024/03/28 06:14:10;;;;;;;2.90;2.53;;;6.70;99.90;;;;;;4827324;29;20695;-90
2024/03/28 06:16:36;;;;;;;4.23;2.60;;;6.80;99.90;;;;;;4826961;29;20186;-91
2024/03/28 06:19:02;;;;;;;3.53;2.50;;;6.80;99.90;;;;;;4827963;29;20174;-90
2024/03/28 06:21:28;;;;;;;4.03;2.80;;;6.80;99.90;;;;;;4841090;29;20220;-89
2024/03/28 06:23:54;;;;;;;3.10;2.80;;;6.80;99.90;;;;;;4864159;29;20556;-90
2024/03/28 06:26:27;;;;;;;2.90;2.60;;;6.80;99.90;;;;;;4848117;29;20184;-90
2024/03/28 06:28:53;;;;;;;3.40;3.00;;;6.80;99.90;;;;;;4848326;29;20192;-89
2024/03/28 06:31:21;;;;;;;4.33;3.07;;;6.80;99.90;;;;;;4848571;29;20673;-91
2024/03/28 06:33:49;;;;;;;4.00;3.10;;;6.80;99.90;;;;;;4848423;29;20185;-86
2024/03/28 06:36:16;;;;;;;4.33;2.90;;;6.70;99.90;;;;;;4864826;29;20184;-90
2024/03/28 06:38:42;;;;;;;3.53;3.07;;;6.80;99.90;;;;;;4848490;29;20169;-92
2024/03/28 06:41:08;;;;;;;3.10;2.80;;;6.80;99.90;;;;;;4848483;29;20199;-89
2024/03/28 06:43:34;;;;;;;3.90;2.90;;;6.80;99.90;;;;;;4848185;29;20551;-91
2024/03/28 06:46:00;;;;;;;3.70;2.87;;;6.90;99.90;;;;;;4848254;29;20176;-91
2024/03/28 06:48:26;;;;;;;4.50;2.77;;;6.90;99.90;;;;;;4848314;29;20279;-92
2024/03/28 06:50:51;;;;;;;4.07;3.37;;;6.90;99.90;;;;;;4848197;29;20267;-90
2024/03/28 06:53:17;;;;;;;3.57;2.87;;;7.00;99.90;;;;;;4848037;29;20272;-91
2024/03/28 06:55:47;;;;;;;5.57;3.53;;;7.00;99.90;;;;;;4848127;29;20212;-92
2024/03/28 06:58:12;;;;;;;5.37;3.47;;;7.10;99.90;;;;;;4864420;29;20187;-91
2024/03/28 07:00:38;;;;;;;3.50;3.00;;;7.10;99.90;;;;;;4864596;29;20672;-92
2024/03/28 07:03:06;;;;;;;4.57;3.37;;;7.10;99.90;;;;;;4846964;29;20220;-91
2024/03/28 07:05:32;;;;;;;4.40;3.53;;;7.10;99.90;;;;;;4848122;29;20185;-91
2024/03/28 07:07:59;;;;;;;3.87;3.20;;;7.20;99.90;;;;;;4864624;29;20609;-91
2024/03/28 07:10:25;;;;;;;5.10;3.20;;;7.20;99.90;;;;;;4864282;29;20260;-91
2024/03/28 07:12:51;;;;;;;3.43;2.80;;;7.10;99.90;;;;;;4847935;29;20240;-92
2024/03/28 07:15:17;;;;;;;4.93;3.43;;;7.20;99.90;;;;;;4847851;29;20528;-90
2024/03/28 07:17:50;;;;;;;5.10;3.17;;;7.30;99.90;;;;;;4834362;29;20247;-92
2024/03/28 07:20:15;;;;;;;4.30;3.50;;;7.30;99.90;;;;;;4829541;29;20622;-91
2024/03/28 07:22:41;;;;;;;4.50;3.47;;;7.40;99.90;;;;;;4829410;29;20283;-91
2024/03/28 07:25:07;;;;;;;5.03;3.20;;;7.50;99.90;;;;;;4845673;29;20182;-90
2024/03/28 07:28:11;;;;;;;4.67;3.33;;;7.60;99.90;;;;;;4829493;29;20213;-91
2024/03/28 07:30:37;;;;;;;4.33;3.43;;;7.80;99.90;;;;;;4829611;29;20265;-91
2024/03/28 07:33:03;;;;;;;4.90;3.63;;;8.00;99.90;;;;;;4829258;29;20205;-91
2024/03/28 07:35:29;;;;;;;4.70;3.60;;;8.20;99.90;;;;;;4829147;29;20243;-87
2024/03/28 07:38:02;;;;;;;3.93;3.37;;;8.30;99.90;;;;;;4829371;29;20212;-89
2024/03/28 07:40:28;;;;;;;3.60;3.17;;;8.30;99.90;;;;;;4828971;29;20178;-89
2024/03/28 07:42:54;;;;;;;3.50;3.20;;;8.30;99.90;;;;;;4845467;29;20277;-90
2024/03/28 07:45:20;;;;;;;3.43;3.10;;;8.20;99.90;;;;;;4845217;29;20180;-86
2024/03/28 07:47:53;;;;;;;3.87;3.20;;;8.10;99.90;;;;;;4829157;29;20189;-89
2024/03/28 07:50:19;;;;;;;5.53;3.13;;;8.10;99.90;;;;;;4845481;29;20170;-88
2024/03/28 07:52:44;;;;;;;4.87;3.60;;;8.20;99.90;;;;;;4829201;29;20271;-89
2024/03/28 07:55:10;;;;;;;4.23;2.80;;;8.30;99.90;;;;;;4845824;29;20173;-89
2024/03/28 07:57:53;;;;;;;3.77;2.87;;;8.40;99.90;;;;;;4862544;29;20530;-88
2024/03/28 08:00:21;;;;;;;3.23;2.70;;;8.50;99.90;;;;;;4863658;29;20163;-90
2024/03/28 08:02:48;;;;;;;3.43;2.97;;;8.40;99.90;;;;;;4846975;29;20235;-91
2024/03/28 08:05:15;;;;;;;3.40;2.47;;;8.50;99.90;;;;;;4847045;29;20184;-88
2024/03/28 08:07:49;;;;;;;3.17;2.77;;;8.60;99.90;;;;;;4863452;29;20188;-89
2024/03/28 08:10:14;;;;;;;2.73;2.43;;;8.60;99.90;;;;;;4862099;29;20218;-91
2024/03/28 08:12:40;;;;;;;4.77;2.60;;;8.70;99.90;;;;;;4846906;29;20189;-90
2024/03/28 08:15:11;;;;;;;3.33;2.40;;;8.80;99.90;;;;;;4843760;29;20430;-90
2024/03/28 08:17:53;;;;;;;2.50;2.23;;;8.80;99.90;;;;;;4844525;29;20595;-93
2024/03/28 08:20:32;;;;;;;2.23;2.00;;;9.00;99.90;;;;;;4845067;29;20268;-87
2024/03/28 08:22:57;;;;;;;2.23;2.03;;;9.00;99.90;;;;;;4862838;29;20333;-86
2024/03/28 08:25:23;;;;;;;2.40;2.20;;;9.00;99.90;;;;;;4868047;29;20276;-93
2024/03/28 08:27:57;;;;;;;2.70;2.20;;;9.10;99.90;;;;;;4861032;29;20184;-87
2024/03/28 08:30:23;;;;;;;3.03;1.97;;;9.20;99.90;;;;;;4859144;29;20624;-91
2024/03/28 08:32:50;;;;;;;2.10;1.80;;;9.10;99.90;;;;;;4850185;29;20203;-91
2024/03/28 08:35:16;;;;;;;2.17;1.60;;;8.90;99.90;;;;;;4865613;29;20262;-91
2024/03/28 08:37:59;;;;;;;1.63;1.53;;;8.80;99.90;;;;;;4861697;29;20188;-88
2024/03/28 08:40:25;;;;;;;2.10;1.90;;;8.80;99.90;;;;;;4861059;29;20212;-89
2024/03/28 08:42:50;;;;;;;2.30;2.10;;;8.80;99.90;;;;;;4865452;29;20258;-90
2024/03/28 08:45:18;;;;;;;2.90;2.50;;;8.90;99.90;;;;;;4861132;29;20192;-89
2024/03/28 08:47:45;;;;;;;3.63;2.50;;;8.80;99.90;;;;;;4866020;29;20187;-91
2024/03/28 08:50:13;;;;;;;3.60;2.90;;;8.70;99.90;;;;;;4863471;29;20177;-92
2024/03/28 08:52:39;;;;;;;4.83;3.43;;;8.80;99.90;;;;;;4851996;29;20215;-90
2024/03/28 08:55:10;;;;;;;4.27;3.87;;;8.80;99.90;;;;;;4845143;29;20609;-91
2024/03/28 08:57:48;;;;;;;4.23;3.77;;;8.90;99.90;;;;;;4844527;29;20192;-94
2024/03/28 09:00:15;;;;;;;5.47;4.07;;;9.00;99.90;;;;;;4846752;29;20172;-89
2024/03/28 09:02:44;;;;;;;4.47;4.07;;;9.20;99.90;;;;;;4846509;29;20541;-94
2024/03/28 09:05:15;;;;;;;7.60;4.53;;;9.20;99.90;;;;;;4863218;29;20177;-93
2024/03/28 09:07:49;;;;;;;10.57;6.60;;;9.40;99.90;;;;;;4846674;29;20195;-90
2024/03/28 09:10:19;;;;;;;9.30;6.17;;;9.50;99.90;;;;;;4846784;29;20181;-91
2024/03/28 09:12:47;;;;;;;7.10;5.17;;;9.40;99.90;;;;;;4863317;29;20563;-89
2024/03/28 09:15:15;;;;;;;9.30;5.63;;;9.40;99.90;;;;;;4846654;29;20181;-88
2024/03/28 09:17:46;;;;;;;14.47;7.03;;;9.50;99.90;;;;;;4863299;29;20187;-91
2024/03/28 09:20:13;;;;;;;7.10;4.90;;;9.60;99.90;;;;;;4862168;29;20200;-90
2024/03/28 09:22:39;;;;;;;6.23;4.80;;;9.70;99.90;;;;;;4841899;29;20665;-89
2024/03/28 09:25:05;;;;;;;5.63;5.00;;;9.90;99.90;;;;;;4844579;29;20219;-93
2024/03/28 09:27:32;;;;;;;5.25;4.75;;;10.00;99.90;;;;;;4847287;29;20515;-88
2024/03/28 09:29:58;;;;;;;6.28;4.85;;;10.00;99.90;;;;;;4847774;29;20180;-92
2024/03/28 09:32:24;;;;;;;5.43;4.70;;;9.90;99.90;;;;;;4847865;29;20196;-91
2024/03/28 09:34:49;;;;;;;6.18;5.10;;;9.90;99.90;;;;;;4865838;29;20185;-93
2024/03/28 09:37:17;;;;;;;8.35;5.20;;;10.20;99.90;;;;;;4863886;29;20522;-92
2024/03/28 09:39:46;;;;;;;6.15;5.05;;;10.50;99.90;;;;;;4848195;29;20192;-93
2024/03/28 09:42:19;;;;;;;7.60;5.50;;;10.70;99.90;;;;;;4857120;29;20236;-93
2024/03/28 09:44:46;;;;;;;5.63;5.03;;;11.00;99.90;;;;;;4841082;29;20201;-94
2024/03/28 09:47:15;;;;;;;7.35;4.85;;;11.10;99.90;;;;;;4847484;29;20526;-92
2024/03/28 09:49:42;;;;;;;5.97;4.65;;;11.20;99.90;;;;;;4850746;29;20220;-87
2024/03/28 09:52:09;;;;;;;6.70;4.55;;;11.10;99.90;;;;;;4848450;29;20252;-90
2024/03/28 09:54:36;;;;;;;4.88;4.18;;;10.80;99.90;;;;;;4863647;29;20196;-87
2024/03/28 09:57:02;;;;;;;7.88;4.22;;;10.80;99.90;;;;;;4852065;29;20193;-89
2024/03/28 09:59:35;;;;;;;8.30;4.25;;;10.70;99.90;;;;;;4847067;29;20680;-89
2024/03/28 10:02:13;;;;;;;7.50;4.78;;;10.90;99.90;;;;;;4847526;29;20208;-93
2024/03/28 10:04:43;;;;;;;5.32;3.72;;;11.20;99.90;;;;;;4866716;29;20193;-89
2024/03/28 10:07:10;;;;;;;5.90;4.50;;;11.30;99.90;;;;;;4848099;29;20574;-92
2024/03/28 10:09:49;;;;;;;3.83;3.13;;;11.30;99.90;;;;;;4866227;29;20185;-91
2024/03/28 10:12:16;;;;;;;5.53;3.50;;;11.30;99.90;;;;;;4861189;29;20281;-90
2024/03/28 10:14:56;;;;;;;3.92;3.50;;;11.30;99.90;;;;;;4853957;29;20215;-90
2024/03/28 10:17:27;;;;;;;4.40;3.40;;;11.50;99.90;;;;;;4846160;29;20271;-90
2024/03/28 10:20:07;;;;;;;4.78;3.38;;;11.60;99.90;;;;;;4868784;29;20181;-90
2024/03/28 10:22:42;;;;;;;6.78;3.67;;;11.70;99.90;;;;;;4863203;29;20687;-89
2024/03/28 10:25:23;;;;;;;4.28;2.90;;;11.70;99.90;;;;;;4846440;29;20188;-88
2024/03/28 10:27:49;;;;;;;4.88;2.60;;;11.70;99.90;;;;;;4848603;29;20245;-88
2024/03/28 10:30:28;;;;;;;5.55;2.75;;;11.70;99.90;;;;;;4848861;29;20180;-89
2024/03/28 10:33:04;;;;;;;4.55;2.80;;;11.90;99.90;;;;;;4848688;29;20176;-90
2024/03/28 10:35:31;;;;;;;5.00;2.80;;;11.90;99.90;;;;;;4865636;29;20233;-88
2024/03/28 10:38:02;;;;;;;3.80;2.80;;;12.00;99.90;;;;;;4863647;29;20184;-91
2024/03/28 10:40:41;;;;;;;3.65;2.45;;;12.10;99.90;;;;;;4863686;29;20177;-90
2024/03/28 10:43:08;;;;;;;4.97;2.70;;;12.10;99.90;;;;;;4865007;29;20427;-89
2024/03/28 10:45:38;;;;;;;2.65;1.95;;;12.10;99.90;;;;;;4848388;29;20181;-89
2024/03/28 10:48:13;;;;;;;3.17;1.80;;;12.30;99.90;;;;;;4848427;29;20181;-91
2024/03/28 10:51:03;;;;;;;1.83;1.52;;;12.30;99.90;;;;;;4863655;29;20176;-89
2024/03/28 10:53:35;;;;;;;2.28;1.75;;;12.40;99.90;;;;;;4864834;29;20173;-90
2024/03/28 10:56:12;;;;;;;2.88;1.90;;;12.50;99.90;;;;;;4863604;29;20177;-90
2024/03/28 10:58:46;;;;;;;2.72;1.92;;;12.80;99.90;;;;;;4846301;29;20181;-90
2024/03/28 11:01:13;;;;;;;3.17;1.65;;;13.10;99.90;;;;;;4846479;29;20626;-88
2024/03/28 11:03:40;;;;;;;1.75;1.65;;;12.90;99.90;;;;;;4829871;29;20274;-92
2024/03/28 11:06:08;;;;;;;3.00;1.67;;;12.70;99.90;;;;;;4846046;29;20573;-90
2024/03/28 11:08:35;;;;;;;2.30;1.77;;;12.40;99.90;;;;;;4829768;29;20523;-90
2024/03/28 11:11:01;;;;;;;3.45;2.00;;;12.30;99.90;;;;;;4829590;29;20219;-91
2024/03/28 11:13:28;;;;;;;2.50;1.63;;;12.00;99.90;;;;;;4846169;29;20209;-92
2024/03/28 11:16:11;;;;;;;1.88;1.50;;;11.80;99.90;;;;;;4829660;29;20311;-89
2024/03/28 11:18:37;;;;;;;3.38;1.30;;;11.70;99.90;;;;;;4846042;29;20195;-89
2024/03/28 11:21:03;;;;;;;2.47;1.20;;;11.60;99.90;;;;;;4829528;29;20193;-88
2024/03/28 11:23:31;;;;;;;1.88;1.20;;;11.60;99.90;;;;;;4845647;29;20264;-89
2024/03/28 11:26:23;;;;;;;4.13;0.80;;;11.50;99.90;;;;;;4845558;29;20184;-90
2024/03/28 11:29:03;;;;;;;2.33;0.80;;;11.40;99.90;;;;;;4828026;29;20228;-88
2024/03/28 11:31:32;;;;;;;1.42;0.80;;;11.40;99.90;;;;;;4845602;29;20613;-87
2024/03/28 11:33:59;;;;;;;1.80;0.80;;;11.40;99.90;;;;;;4844652;29;20178;-88
2024/03/28 11:36:29;;;;;;;1.10;0.68;;;11.40;99.90;;;;;;4845596;29;20614;-89
2024/03/28 11:39:11;;;;;;;5.05;0.77;;;11.40;99.90;;;;;;4845491;29;20181;-90
2024/03/28 11:41:37;;;;;;;4.78;1.00;;;11.30;99.90;;;;;;4829297;29;20519;-88
2024/03/28 11:44:03;;;;;;;1.77;0.70;;;11.30;99.90;;;;;;4829223;29;20188;-89
2024/03/28 11:46:29;;;;;;;1.38;0.60;;;11.20;99.90;;;;;;4829256;29;20233;-89
2024/03/28 11:49:03;;;;;;;2.20;0.88;;;11.30;99.90;;;;;;4843759;29;20186;-87
2024/03/28 11:51:29;;;;;;;1.23;0.80;;;11.20;99.90;;;;;;4845299;29;20178;-86
2024/03/28 11:53:55;;;;;;;1.02;0.70;;;11.30;99.90;;;;;;4828767;29;20182;-88
2024/03/28 11:56:24;;;;;;;0.60;0.60;;;11.20;99.90;;;;;;4844109;29;20189;-88
2024/03/28 11:58:49;;;;;;;0.98;0.75;;;11.20;99.90;;;;;;4843815;29;20192;-87
2024/03/28 12:01:38;;;;;;;0.90;0.60;;;11.10;99.90;;;;;;4854131;29;20188;-88
2024/03/28 12:04:04;;;;;;;2.92;0.90;;;10.90;99.90;;;;;;4862532;29;20192;-87
2024/03/28 12:06:31;;;;;;;1.48;0.70;;;10.80;99.90;;;;;;4863892;29;20187;-88
2024/03/28 12:08:57;;;;;;;1.48;0.70;;;10.70;99.90;;;;;;4862316;29;20279;-90
2024/03/28 12:11:23;;;;;;;1.92;0.60;;;10.60;99.90;;;;;;4862285;29;20223;-89
2024/03/28 12:13:49;;;;;;;1.20;0.53;;;10.20;99.90;;;;;;4862209;29;20609;-88
2024/03/28 12:16:14;;;;;;;0.80;0.50;;;9.90;99.90;;;;;;4863426;29;20264;-86
2024/03/28 12:19:04;;;;;;;1.47;0.60;;;9.70;99.90;;;;;;4849619;29;20329;-86
2024/03/28 12:21:29;;;;;;;0.73;0.70;;;9.70;99.90;;;;;;4863275;29;20613;-85
2024/03/28 12:23:55;;;;;;;0.87;0.67;;;9.60;99.90;;;;;;4846268;29;20291;-86
2024/03/28 12:26:23;;;;;;;0.40;0.40;;;9.50;99.90;;;;;;4846798;29;20271;-86
2024/03/28 12:28:48;;;;;;;2.40;0.60;;;9.40;99.90;;;;;;4861920;29;20185;-87
2024/03/28 12:31:33;;;;;;;0.90;0.60;;;9.40;99.90;;;;;;4846770;29;20189;-87
2024/03/28 12:34:09;;;;;;;0.80;0.60;;;9.40;99.90;;;;;;4856469;29;20184;-88
2024/03/28 12:36:35;;;;;;;2.27;0.90;;;9.40;99.90;;;;;;4881984;29;20619;-87
2024/03/28 12:39:01;;;;;;;0.80;0.60;;;9.50;99.90;;;;;;4861202;29;20180;-88
2024/03/28 12:41:32;;;;;;;1.10;0.60;;;9.50;99.90;;;;;;4862049;29;20213;-85
2024/03/28 12:44:03;;;;;;;2.23;0.50;;;9.50;99.90;;;;;;4828417;29;20189;-88
2024/03/28 12:46:29;;;;;;;1.03;0.60;;;9.50;99.90;;;;;;4830330;29;20625;-88
2024/03/28 12:48:55;;;;;;;2.20;0.67;;;9.50;99.90;;;;;;4828033;29;20548;-88
2024/03/28 12:51:21;;;;;;;0.80;0.70;;;9.60;99.90;;;;;;4832198;29;20191;-87
2024/03/28 12:53:47;;;;;;;0.70;0.53;;;9.80;99.90;;;;;;4846281;29;20268;-89
2024/03/28 12:56:13;;;;;;;1.33;0.60;;;9.80;99.90;;;;;;4846425;29;20189;-90
2024/03/28 12:58:39;;;;;;;0.68;0.68;;;10.10;99.90;;;;;;4846553;29;20192;-89
2024/03/28 13:01:18;;;;;;;0.70;0.63;;;10.20;99.90;;;;;;4849662;29;20276;-87
2024/03/28 13:03:43;;;;;;;0.70;0.60;;;10.60;99.90;;;;;;4850846;29;20220;-89
2024/03/28 13:06:09;;;;;;;1.42;0.60;;;10.80;99.90;;;;;;4862168;29;20187;-86